createdAt,value
2017-10-04T00:00:38.663Z,2.73
2017-10-04T00:03:06.776Z,2.87
2017-10-04T00:05:38.086Z,2.20
2017-10-04T00:08:06.946Z,3.20
2017-10-04T00:13:30.371Z,2.20
2017-10-04T00:16:01.748Z,3.00
2017-10-04T00:18:30.613Z,2.53
2017-10-04T00:21:20.940Z,2.53
2017-10-04T00:23:49.043Z,1.60
2017-10-04T00:26:19.110Z,2.60
2017-10-04T00:28:47.886Z,2.43
2017-10-04T00:31:19.554Z,2.07
2017-10-04T00:33:54.089Z,2.10
2017-10-04T00:36:27.324Z,2.73
2017-10-04T00:38:55.454Z,3.03
2017-10-04T00:41:23.593Z,2.07
2017-10-04T00:43:53.418Z,2.63
2017-10-04T00:46:24.929Z,3.23
2017-10-04T00:48:54.965Z,2.07
2017-10-04T00:51:24.043Z,1.83
2017-10-04T00:53:53.123Z,1.83
2017-10-04T00:56:26.897Z,3.23
2017-10-04T00:58:55.014Z,2.30
2017-10-04T01:01:24.013Z,2.50
2017-10-04T01:03:52.117Z,2.70
2017-10-04T01:06:21.978Z,3.10
2017-10-04T01:08:51.058Z,2.13
2017-10-04T01:11:25.696Z,1.93
2017-10-04T01:13:54.878Z,2.83
2017-10-04T01:16:22.998Z,2.23
2017-10-04T01:18:51.175Z,2.40
2017-10-04T01:21:22.333Z,2.07
2017-10-04T01:23:52.266Z,2.03
2017-10-04T01:26:20.432Z,1.97
2017-10-04T01:28:54.150Z,2.73
2017-10-04T01:31:24.254Z,2.60
2017-10-04T01:33:55.821Z,3.87
2017-10-04T01:36:23.916Z,2.03
2017-10-04T01:38:53.006Z,2.40
2017-10-04T01:41:21.191Z,2.50
2017-10-04T01:44:01.374Z,2.93
2017-10-04T01:46:29.474Z,2.40
2017-10-04T01:48:58.550Z,2.00
2017-10-04T01:51:38.127Z,2.30
2017-10-04T01:54:12.948Z,2.40
2017-10-04T01:56:41.977Z,2.60
2017-10-04T01:59:10.087Z,2.13
2017-10-04T02:01:41.768Z,2.00
2017-10-04T02:04:09.898Z,1.83
2017-10-04T02:06:39.959Z,2.80
2017-10-04T02:09:16.939Z,2.50
2017-10-04T02:11:51.495Z,2.43
2017-10-04T02:14:19.675Z,3.90
2017-10-04T02:16:49.755Z,2.53
2017-10-04T02:19:19.862Z,2.20
2017-10-04T02:21:54.159Z,3.47
2017-10-04T02:24:27.221Z,2.27
2017-10-04T02:27:02.808Z,2.73
2017-10-04T02:29:34.929Z,1.97
2017-10-04T02:32:04.015Z,1.80
2017-10-04T02:34:32.862Z,2.60
2017-10-04T02:37:00.971Z,1.93
2017-10-04T02:39:32.161Z,2.90
2017-10-04T02:42:04.162Z,2.07
2017-10-04T02:44:32.242Z,2.30
2017-10-04T02:47:01.375Z,2.20
2017-10-04T02:49:30.246Z,2.40
2017-10-04T02:52:03.089Z,2.40
2017-10-04T02:54:31.181Z,2.40
2017-10-04T02:57:03.261Z,2.10
2017-10-04T02:59:32.346Z,2.53
2017-10-04T03:02:13.301Z,2.07
2017-10-04T03:04:41.485Z,2.37
2017-10-04T03:07:10.591Z,2.60
2017-10-04T03:09:40.484Z,3.00
2017-10-04T03:12:08.602Z,2.57
2017-10-04T03:14:38.626Z,2.23
2017-10-04T03:17:07.803Z,3.37
2017-10-04T03:19:35.885Z,2.40
2017-10-04T03:22:05.745Z,3.63
2017-10-04T03:24:33.841Z,2.93
2017-10-04T03:27:12.972Z,2.40
2017-10-04T03:29:43.398Z,2.23
2017-10-04T03:32:13.431Z,2.40
2017-10-04T03:34:41.549Z,2.60
2017-10-04T03:37:09.681Z,2.20
2017-10-04T03:39:43.331Z,1.83
2017-10-04T03:42:13.453Z,2.50
2017-10-04T03:44:41.639Z,2.50
2017-10-04T03:47:12.953Z,2.50
2017-10-04T03:49:43.035Z,2.37
2017-10-04T03:52:15.582Z,2.47
2017-10-04T03:54:43.755Z,2.60
2017-10-04T03:57:12.829Z,2.53
2017-10-04T03:59:40.982Z,2.90
2017-10-04T04:02:09.085Z,3.33
2017-10-04T04:04:42.788Z,2.20
2017-10-04T04:07:11.798Z,1.93
2017-10-04T04:09:39.874Z,2.80
2017-10-04T04:12:08.744Z,3.00
2017-10-04T04:14:40.962Z,2.67
2017-10-04T04:17:10.053Z,1.83
2017-10-04T04:19:43.971Z,2.80
2017-10-04T04:22:12.155Z,2.70
2017-10-04T04:24:41.213Z,1.93
2017-10-04T04:27:10.263Z,2.20
2017-10-04T04:29:43.538Z,2.10
2017-10-04T04:32:13.606Z,2.50
2017-10-04T04:34:42.820Z,2.97
2017-10-04T04:37:12.848Z,2.60
2017-10-04T04:39:41.885Z,3.40
2017-10-04T04:42:09.986Z,2.33
2017-10-04T04:44:38.977Z,2.10
2017-10-04T04:47:07.072Z,2.60
2017-10-04T04:49:35.201Z,3.23
2017-10-04T04:52:03.349Z,2.60
2017-10-04T04:54:31.430Z,2.47
2017-10-04T04:57:00.106Z,3.37
2017-10-04T04:59:28.260Z,2.93
2017-10-04T05:01:58.327Z,2.70
2017-10-04T05:04:27.250Z,3.43
2017-10-04T05:06:55.365Z,3.70
2017-10-04T05:09:24.365Z,2.70
2017-10-04T05:11:52.462Z,3.70
2017-10-04T05:14:20.789Z,3.60
2017-10-04T05:16:48.958Z,3.53
2017-10-04T05:19:17.125Z,3.17
2017-10-04T05:21:45.262Z,3.43
2017-10-04T05:24:14.376Z,3.27
2017-10-04T05:26:42.526Z,3.73
2017-10-04T05:29:10.613Z,3.87
2017-10-04T05:31:39.581Z,3.17
2017-10-04T05:34:07.738Z,4.00
2017-10-04T05:36:36.606Z,4.50
2017-10-04T05:39:04.710Z,3.90
2017-10-04T05:41:32.822Z,3.47
2017-10-04T05:44:00.936Z,3.30
2017-10-04T05:46:29.062Z,3.57
2017-10-04T05:48:57.153Z,4.33
2017-10-04T05:51:25.391Z,3.20
2017-10-04T05:53:56.224Z,2.40
2017-10-04T05:56:24.476Z,3.57
2017-10-04T05:58:52.567Z,3.67
2017-10-04T06:01:20.667Z,3.37
2017-10-04T06:03:48.750Z,3.40
2017-10-04T06:06:16.908Z,3.87
2017-10-04T06:08:45.111Z,3.50
2017-10-04T06:11:13.200Z,5.20
2017-10-04T06:13:41.334Z,3.27
2017-10-04T06:16:09.405Z,2.90
2017-10-04T06:18:37.516Z,3.03
2017-10-04T06:21:06.566Z,3.57
2017-10-04T06:23:34.685Z,3.67
2017-10-04T06:26:02.771Z,3.17
2017-10-04T06:28:30.918Z,3.80
2017-10-04T06:30:59.027Z,2.93
2017-10-04T06:33:27.124Z,3.97
2017-10-04T06:35:55.210Z,3.67
2017-10-04T06:38:23.301Z,3.40
2017-10-04T06:40:51.393Z,2.73
2017-10-04T06:43:20.474Z,2.60
2017-10-04T06:45:48.858Z,3.30
2017-10-04T06:48:17.352Z,2.60
2017-10-04T06:50:45.482Z,3.17
2017-10-04T06:53:13.981Z,3.60
2017-10-04T06:55:42.349Z,2.80
2017-10-04T06:58:10.476Z,2.90
2017-10-04T07:00:38.657Z,2.80
2017-10-04T07:03:08.765Z,2.50
2017-10-04T07:05:36.941Z,2.83
2017-10-04T07:08:05.126Z,2.97
2017-10-04T07:10:33.223Z,2.70
2017-10-04T07:13:01.419Z,2.53
2017-10-04T07:15:29.570Z,2.97
2017-10-04T07:17:57.654Z,3.60
2017-10-04T07:20:25.875Z,3.00
2017-10-04T07:22:54.022Z,2.40
2017-10-04T07:25:22.243Z,2.87
2017-10-04T07:27:50.342Z,2.37
2017-10-04T07:30:18.513Z,2.80
2017-10-04T07:32:47.480Z,3.13
2017-10-04T07:35:16.482Z,2.80
2017-10-04T07:37:45.349Z,2.93
2017-10-04T07:40:14.234Z,2.40
2017-10-04T07:42:42.354Z,3.03
2017-10-04T07:45:10.542Z,2.97
2017-10-04T07:47:40.281Z,2.33
2017-10-04T07:50:09.300Z,2.70
2017-10-04T07:52:37.434Z,2.60
2017-10-04T07:55:05.534Z,2.93
2017-10-04T07:57:33.648Z,2.40
2017-10-04T08:00:04.831Z,3.00
2017-10-04T08:02:32.936Z,2.50
2017-10-04T08:05:01.039Z,2.80
2017-10-04T08:07:29.149Z,3.00
2017-10-04T08:12:51.413Z,2.30
2017-10-04T08:15:19.656Z,2.90
2017-10-04T08:17:48.705Z,2.90
2017-10-04T08:20:16.864Z,3.07
2017-10-04T08:22:46.162Z,3.30
2017-10-04T08:25:14.260Z,2.63
2017-10-04T08:27:42.354Z,2.33
2017-10-04T08:30:10.451Z,2.67
2017-10-04T08:32:40.243Z,2.00
2017-10-04T08:35:08.492Z,2.47
2017-10-04T08:37:37.360Z,3.47
2017-10-04T08:40:05.711Z,2.83
2017-10-04T08:42:34.690Z,2.60
2017-10-04T08:45:02.823Z,2.47
2017-10-04T08:47:42.806Z,3.00
2017-10-04T08:50:10.954Z,3.10
2017-10-04T08:52:39.087Z,2.67
2017-10-04T08:55:07.592Z,2.60
2017-10-04T08:57:35.730Z,2.30
2017-10-04T09:00:03.987Z,2.97
2017-10-04T09:02:32.869Z,3.00
2017-10-04T09:05:08.206Z,3.13
2017-10-04T09:07:37.049Z,2.90
2017-10-04T09:10:05.152Z,3.40
2017-10-04T09:12:33.550Z,2.97
2017-10-04T09:15:02.032Z,2.47
2017-10-04T09:17:30.196Z,4.03
2017-10-04T09:19:58.308Z,2.50
2017-10-04T09:22:26.397Z,2.83
2017-10-04T09:24:54.534Z,3.23
2017-10-04T09:27:23.558Z,3.47
2017-10-04T09:29:53.628Z,2.70
2017-10-04T09:32:22.665Z,2.40
2017-10-04T09:34:50.913Z,2.77
2017-10-04T09:37:19.057Z,2.80
2017-10-04T09:39:47.935Z,3.17
2017-10-04T09:42:16.803Z,3.13
2017-10-04T09:44:44.902Z,2.50
2017-10-04T09:47:13.031Z,2.50
2017-10-04T09:49:41.136Z,2.67
2017-10-04T09:52:09.306Z,3.40
2017-10-04T09:54:37.397Z,2.67
2017-10-04T09:57:05.655Z,2.70
2017-10-04T09:59:35.820Z,3.00
2017-10-04T10:02:03.928Z,2.93
2017-10-04T10:04:33.077Z,3.17
2017-10-04T10:07:01.964Z,2.57
2017-10-04T10:09:30.819Z,2.63
2017-10-04T10:11:58.910Z,2.67
2017-10-04T10:14:27.025Z,2.90
2017-10-04T10:16:55.180Z,2.70
2017-10-04T10:19:23.910Z,3.33
2017-10-04T10:21:52.182Z,2.83
2017-10-04T10:24:20.364Z,2.23
2017-10-04T10:26:52.526Z,3.37
2017-10-04T10:29:20.714Z,2.90
2017-10-04T10:31:49.012Z,2.50
2017-10-04T10:34:19.155Z,2.87
2017-10-04T10:36:51.734Z,2.97
2017-10-04T10:39:20.876Z,2.43
2017-10-04T10:41:49.086Z,2.20
2017-10-04T10:44:18.081Z,2.67
2017-10-04T10:46:46.197Z,2.50
2017-10-04T10:49:14.289Z,2.90
2017-10-04T10:51:42.563Z,3.10
2017-10-04T10:54:10.682Z,2.23
2017-10-04T10:56:38.806Z,2.37
2017-10-04T10:59:08.083Z,2.33
2017-10-04T11:01:36.257Z,1.97
2017-10-04T11:04:05.488Z,2.30
2017-10-04T11:06:33.601Z,2.37
2017-10-04T11:09:01.718Z,2.27
2017-10-04T11:11:32.637Z,2.10
2017-10-04T11:14:04.959Z,2.20
2017-10-04T11:16:33.167Z,2.57
2017-10-04T11:19:01.960Z,2.20
2017-10-04T11:21:30.066Z,1.83
2017-10-04T11:23:59.230Z,2.43
2017-10-04T11:26:27.389Z,3.00
2017-10-04T11:28:56.711Z,2.30
2017-10-04T11:31:24.819Z,2.60
2017-10-04T11:33:53.739Z,2.40
2017-10-04T11:36:22.870Z,1.70
2017-10-04T11:38:51.966Z,1.97
2017-10-04T11:41:20.862Z,2.30
2017-10-04T11:43:48.949Z,2.90
2017-10-04T11:46:20.748Z,2.50
2017-10-04T11:48:50.084Z,1.93
2017-10-04T11:51:18.864Z,2.00
2017-10-04T11:53:46.995Z,2.20
2017-10-04T11:56:16.447Z,2.27
2017-10-04T11:58:45.427Z,2.40
2017-10-04T12:01:14.560Z,2.53
2017-10-04T12:03:42.650Z,1.97
2017-10-04T12:06:10.794Z,2.13
2017-10-04T12:08:40.811Z,2.20
2017-10-04T12:11:09.215Z,2.30
2017-10-04T12:13:37.321Z,2.10
2017-10-04T12:16:05.475Z,3.13
2017-10-04T12:18:35.882Z,2.00
2017-10-04T12:21:04.990Z,1.80
2017-10-04T12:23:33.158Z,2.60
2017-10-04T12:26:02.504Z,2.00
2017-10-04T12:28:30.690Z,2.40
2017-10-04T12:30:58.851Z,2.20
2017-10-04T12:33:26.962Z,2.17
2017-10-04T12:35:55.070Z,2.77
2017-10-04T12:38:23.229Z,2.10
2017-10-04T12:40:51.320Z,2.20
2017-10-04T12:43:19.457Z,2.20
2017-10-04T12:45:49.464Z,2.20
2017-10-04T12:48:18.462Z,2.00
2017-10-04T12:50:47.493Z,2.00
2017-10-04T12:53:15.619Z,2.33
2017-10-04T12:55:44.283Z,2.10
2017-10-04T12:58:13.162Z,1.97
2017-10-04T13:00:42.164Z,1.93
2017-10-04T13:03:11.321Z,2.37
2017-10-04T13:05:39.559Z,2.50
2017-10-04T13:08:07.740Z,2.00
2017-10-04T13:10:36.605Z,2.20
2017-10-04T13:13:05.474Z,2.10
2017-10-04T13:15:33.584Z,2.03
2017-10-04T13:18:02.599Z,2.00
2017-10-04T13:20:30.830Z,2.60
2017-10-04T13:22:58.967Z,2.07
2017-10-04T13:25:28.205Z,2.23
2017-10-04T13:27:57.112Z,2.20
2017-10-04T13:30:25.223Z,2.33
2017-10-04T13:32:53.322Z,2.20
2017-10-04T13:35:21.417Z,2.00
2017-10-04T13:37:49.585Z,2.73
2017-10-04T13:40:17.687Z,2.40
2017-10-04T13:42:45.900Z,2.00
2017-10-04T13:45:13.986Z,3.13
2017-10-04T13:47:42.852Z,2.27
2017-10-04T13:50:11.780Z,2.37
2017-10-04T13:52:40.663Z,2.40
2017-10-04T13:55:08.901Z,2.27
2017-10-04T13:57:37.113Z,1.80
2017-10-04T14:00:05.279Z,2.00
2017-10-04T14:02:33.386Z,1.97
2017-10-04T14:05:01.486Z,2.03
2017-10-04T14:07:29.672Z,1.73
2017-10-04T14:09:58.526Z,2.20
2017-10-04T14:12:27.395Z,1.60
2017-10-04T14:14:57.275Z,2.23
2017-10-04T14:17:25.386Z,2.30
2017-10-04T14:19:55.488Z,1.90
2017-10-04T14:22:23.719Z,1.87
2017-10-04T14:24:51.832Z,1.80
2017-10-04T14:27:20.570Z,2.50
2017-10-04T14:29:49.474Z,2.03
2017-10-04T14:32:18.499Z,2.13
2017-10-04T14:34:47.374Z,2.50
2017-10-04T14:37:16.237Z,1.70
2017-10-04T14:39:45.159Z,2.27
2017-10-04T14:42:13.359Z,2.17
2017-10-04T14:44:41.547Z,3.20
2017-10-04T14:47:09.708Z,1.60
2017-10-04T14:49:38.717Z,2.20
2017-10-04T14:52:06.895Z,1.73
2017-10-04T14:54:35.014Z,2.10
2017-10-04T14:57:06.721Z,3.47
2017-10-04T14:59:34.890Z,1.73
2017-10-04T15:02:04.928Z,1.80
2017-10-04T15:04:34.974Z,1.90
2017-10-04T15:07:03.089Z,2.13
2017-10-04T15:09:31.197Z,1.80
2017-10-04T15:12:06.415Z,1.63
2017-10-04T15:14:37.376Z,2.60
2017-10-04T15:17:07.410Z,1.70
2017-10-04T15:19:36.503Z,2.60
2017-10-04T15:22:06.298Z,2.13
2017-10-04T15:24:35.366Z,2.20
2017-10-04T15:27:05.480Z,2.10
2017-10-04T15:29:36.870Z,1.93
2017-10-04T15:32:08.611Z,2.53
2017-10-04T15:34:39.803Z,2.10
2017-10-04T15:37:12.407Z,1.97
2017-10-04T15:39:45.311Z,2.10
2017-10-04T15:42:17.326Z,1.57
2017-10-04T15:44:46.243Z,1.93
2017-10-04T15:47:14.399Z,1.80
2017-10-04T15:49:42.761Z,2.07
2017-10-04T15:52:11.013Z,2.50
2017-10-04T15:54:40.076Z,2.37
2017-10-04T15:57:08.171Z,2.00
2017-10-04T15:59:36.504Z,2.27
2017-10-04T16:02:05.619Z,2.10
2017-10-04T16:04:39.638Z,1.57
2017-10-04T16:07:07.913Z,2.10
2017-10-04T16:09:36.010Z,2.13
2017-10-04T16:12:04.104Z,1.93
2017-10-04T16:14:33.127Z,2.27
2017-10-04T16:17:01.223Z,2.27
2017-10-04T16:19:30.248Z,2.10
2017-10-04T16:21:59.167Z,2.70
2017-10-04T16:24:29.108Z,2.07
2017-10-04T16:26:59.126Z,2.40
2017-10-04T16:29:30.657Z,2.10
2017-10-04T16:32:04.291Z,2.00
2017-10-04T16:34:35.083Z,2.03
2017-10-04T16:37:03.189Z,1.87
2017-10-04T16:39:32.484Z,2.33
2017-10-04T16:42:04.464Z,2.47
2017-10-04T16:44:33.862Z,1.70
2017-10-04T16:47:04.136Z,1.93
2017-10-04T16:49:40.247Z,2.17
2017-10-04T16:52:16.851Z,2.00
2017-10-04T16:54:45.953Z,1.90
2017-10-04T16:57:14.998Z,1.97
2017-10-04T16:59:43.110Z,1.57
2017-10-04T17:02:11.979Z,2.03
2017-10-04T17:04:40.142Z,1.70
2017-10-04T17:07:08.242Z,1.53
2017-10-04T17:09:36.831Z,1.70
2017-10-04T17:12:04.943Z,1.70
2017-10-04T17:14:33.038Z,2.00
2017-10-04T17:17:01.135Z,2.17
2017-10-04T17:19:29.217Z,1.53
2017-10-04T17:21:57.419Z,2.73
2017-10-04T17:24:27.525Z,2.10
2017-10-04T17:26:56.712Z,2.17
2017-10-04T17:29:24.823Z,2.03
2017-10-04T17:31:52.915Z,1.70
2017-10-04T17:34:21.029Z,1.40
2017-10-04T17:36:49.166Z,1.60
2017-10-04T17:39:18.197Z,2.40
2017-10-04T17:41:48.282Z,1.77
2017-10-04T17:44:17.374Z,2.00
2017-10-04T17:46:46.365Z,1.83
2017-10-04T17:49:19.047Z,2.30
2017-10-04T17:51:48.111Z,1.80
2017-10-04T17:54:17.985Z,1.43
2017-10-04T17:56:48.001Z,1.73
2017-10-04T17:59:35.854Z,1.80
2017-10-04T18:02:05.938Z,1.73
2017-10-04T18:04:36.028Z,2.23
2017-10-04T18:07:06.173Z,2.30
2017-10-04T18:09:36.063Z,2.67
2017-10-04T18:12:04.185Z,2.23
2017-10-04T18:14:34.206Z,2.57
2017-10-04T18:17:03.266Z,2.23
2017-10-04T18:19:32.445Z,2.57
2017-10-04T18:22:00.940Z,2.20
2017-10-04T18:24:29.949Z,2.20
2017-10-04T18:27:00.248Z,2.40
2017-10-04T18:29:28.708Z,1.50
2017-10-04T18:31:57.590Z,2.27
2017-10-04T18:34:26.446Z,2.50
2017-10-04T18:36:56.302Z,1.80
2017-10-04T18:39:24.418Z,2.03
2017-10-04T18:44:48.874Z,2.03
2017-10-04T18:47:18.112Z,3.37
2017-10-04T18:49:47.169Z,1.37
2017-10-04T18:52:17.197Z,1.90
2017-10-04T18:54:45.695Z,1.53
2017-10-04T18:57:17.607Z,2.13
2017-10-04T18:59:48.633Z,2.00
2017-10-04T19:02:17.698Z,2.40
2017-10-04T19:04:45.829Z,1.63
2017-10-04T19:07:14.842Z,2.07
2017-10-04T19:09:49.773Z,2.00
2017-10-04T19:12:20.690Z,2.13
2017-10-04T19:14:48.837Z,4.20
2017-10-04T19:17:19.959Z,2.07
2017-10-04T19:19:49.018Z,2.50
2017-10-04T19:22:18.281Z,2.70
2017-10-04T19:24:47.396Z,2.50
2017-10-04T19:27:15.778Z,2.20
2017-10-04T19:29:44.931Z,2.40
2017-10-04T19:32:18.088Z,2.10
2017-10-04T19:34:49.670Z,2.43
2017-10-04T19:37:25.234Z,2.60
2017-10-04T19:39:59.321Z,2.53
2017-10-04T19:42:34.182Z,2.30
2017-10-04T19:45:04.237Z,2.67
2017-10-04T19:47:32.397Z,2.70
2017-10-04T19:50:06.351Z,2.20
2017-10-04T19:52:36.367Z,2.80
2017-10-04T19:55:06.546Z,2.57
2017-10-04T19:57:40.435Z,3.33
2017-10-04T20:02:51.693Z,2.27
2017-10-04T20:05:22.736Z,2.00
2017-10-04T20:07:52.735Z,2.63
2017-10-04T20:10:20.871Z,2.57
2017-10-04T20:12:48.990Z,3.00
2017-10-04T20:15:19.088Z,2.63
2017-10-04T20:17:47.264Z,2.93
2017-10-04T20:20:15.375Z,2.80
2017-10-04T20:22:43.561Z,2.83
2017-10-04T20:25:16.677Z,2.97
2017-10-04T20:27:47.207Z,2.17
2017-10-04T20:30:15.341Z,2.40
2017-10-04T20:32:44.177Z,3.03
2017-10-04T20:35:12.302Z,2.53
2017-10-04T20:37:43.697Z,2.63
2017-10-04T20:40:13.863Z,2.10
2017-10-04T20:42:42.010Z,2.90
2017-10-04T20:45:11.084Z,2.97
2017-10-04T20:47:39.277Z,2.33
2017-10-04T20:50:07.442Z,2.50
2017-10-04T20:52:46.213Z,3.00
2017-10-04T20:55:16.455Z,3.20
2017-10-04T20:57:51.345Z,2.90
2017-10-04T21:00:23.609Z,3.20
2017-10-04T21:05:32.067Z,3.67
2017-10-04T21:08:00.286Z,3.10
2017-10-04T21:10:29.326Z,2.80
2017-10-04T21:15:33.136Z,2.90
2017-10-04T21:18:04.889Z,3.77
2017-10-04T21:20:34.967Z,3.67
2017-10-04T21:23:05.119Z,3.10
2017-10-04T21:25:37.530Z,3.17
2017-10-04T21:28:05.677Z,2.67
2017-10-04T21:30:33.822Z,3.30
2017-10-04T21:33:06.048Z,3.57
2017-10-04T21:35:47.369Z,3.90
2017-10-04T21:38:18.151Z,3.47
2017-10-04T21:40:47.250Z,4.57
2017-10-04T21:43:16.315Z,3.87
2017-10-04T21:45:44.604Z,4.10
2017-10-04T21:48:14.682Z,5.40
2017-10-04T21:50:48.873Z,4.30
2017-10-04T21:53:21.825Z,4.00
2017-10-04T21:55:51.846Z,3.93
2017-10-04T21:58:19.952Z,3.40
2017-10-04T22:00:48.091Z,3.07
2017-10-04T22:03:17.134Z,2.70
2017-10-04T22:05:48.253Z,3.23
2017-10-04T22:08:32.587Z,3.13
2017-10-04T22:11:00.789Z,2.40
2017-10-04T22:13:28.926Z,1.73
2017-10-04T22:15:57.055Z,2.30
2017-10-04T22:18:26.142Z,2.00
2017-10-04T22:20:55.242Z,2.57
2017-10-04T22:23:24.298Z,2.80
2017-10-04T22:26:11.294Z,3.20
2017-10-04T22:28:44.166Z,3.57
2017-10-04T22:31:17.420Z,3.57
2017-10-04T22:33:46.267Z,4.70
2017-10-04T22:36:17.155Z,3.60
2017-10-04T22:38:46.222Z,3.13
2017-10-04T22:41:14.374Z,2.67
2017-10-04T22:43:44.494Z,2.40
2017-10-04T22:46:12.633Z,2.43
2017-10-04T22:48:41.706Z,2.50
2017-10-04T22:51:13.051Z,1.83
2017-10-04T22:53:52.522Z,1.50
2017-10-04T22:56:26.435Z,1.40
2017-10-04T22:59:02.490Z,1.10
2017-10-04T23:01:40.592Z,1.20
2017-10-04T23:04:12.539Z,0.90
2017-10-04T23:06:52.899Z,0.90
2017-10-04T23:09:27.001Z,0.60
2017-10-04T23:11:55.125Z,1.10
2017-10-04T23:14:26.977Z,1.00
2017-10-04T23:16:56.999Z,1.00
2017-10-04T23:19:30.204Z,1.10
2017-10-04T23:21:59.065Z,1.40
2017-10-04T23:24:31.862Z,0.90
2017-10-04T23:27:00.934Z,0.80
2017-10-04T23:29:29.952Z,1.10
2017-10-04T23:32:00.062Z,1.10
2017-10-04T23:34:30.071Z,1.47
2017-10-04T23:36:58.284Z,1.17
2017-10-04T23:39:29.851Z,1.10
2017-10-04T23:41:59.004Z,1.30
2017-10-04T23:44:27.847Z,1.10
2017-10-04T23:46:56.747Z,0.83
2017-10-04T23:49:32.728Z,1.40
2017-10-04T23:52:00.967Z,1.10
2017-10-04T23:54:29.962Z,1.00
2017-10-04T23:57:16.350Z,1.10
2017-10-04T23:59:46.458Z,0.97
